createdAt,value
2019-02-18T00:01:29.737Z,6.70
2019-02-18T00:04:01.653Z,6.70
2019-02-18T00:06:31.351Z,6.70
2019-02-18T00:09:02.123Z,6.70
2019-02-18T00:11:32.107Z,6.60
2019-02-18T00:14:01.670Z,6.60
2019-02-18T00:16:30.876Z,6.60
2019-02-18T00:19:00.169Z,6.60
2019-02-18T00:21:29.446Z,6.60
2019-02-18T00:23:58.747Z,6.50
2019-02-18T00:26:28.055Z,6.50
2019-02-18T00:28:57.257Z,6.50
2019-02-18T00:31:26.580Z,6.50
2019-02-18T00:33:55.845Z,6.50
2019-02-18T00:36:25.099Z,6.40
2019-02-18T00:38:54.620Z,6.40
2019-02-18T00:41:23.992Z,6.40
2019-02-18T00:43:53.179Z,6.40
2019-02-18T00:46:22.482Z,6.30
2019-02-18T00:48:52.117Z,6.30
2019-02-18T00:51:21.444Z,6.30
2019-02-18T00:53:51.313Z,6.30
2019-02-18T00:56:20.941Z,6.20
2019-02-18T00:58:50.697Z,6.20
2019-02-18T01:01:20.123Z,6.20
2019-02-18T01:03:49.427Z,6.20
2019-02-18T01:06:18.711Z,6.10
2019-02-18T01:08:47.968Z,6.10
2019-02-18T01:11:17.613Z,6.10
2019-02-18T01:13:46.881Z,6.10
2019-02-18T01:16:16.155Z,6.00
2019-02-18T01:18:45.735Z,6.00
2019-02-18T01:21:15.340Z,6.00
2019-02-18T01:23:44.713Z,6.00
2019-02-18T01:26:16.326Z,5.90
2019-02-18T01:28:45.592Z,5.90
2019-02-18T01:31:14.849Z,5.90
2019-02-18T01:33:44.404Z,5.80
2019-02-18T01:36:13.735Z,5.90
2019-02-18T01:38:42.997Z,5.80
2019-02-18T01:41:12.542Z,5.80
2019-02-18T01:43:41.910Z,5.80
2019-02-18T01:46:11.585Z,5.80
2019-02-18T01:48:41.222Z,5.70
2019-02-18T01:51:10.533Z,5.70
2019-02-18T01:53:39.809Z,5.70
2019-02-18T01:56:09.090Z,5.70
2019-02-18T01:58:38.374Z,5.70
2019-02-18T02:01:07.990Z,5.60
2019-02-18T02:03:37.200Z,5.60
2019-02-18T02:06:06.516Z,5.60
2019-02-18T02:08:35.750Z,5.50
2019-02-18T02:11:08.370Z,5.50
2019-02-18T02:13:38.403Z,5.50
2019-02-18T02:16:09.885Z,5.50
2019-02-18T02:18:39.202Z,5.50
2019-02-18T02:21:08.459Z,5.50
2019-02-18T02:23:37.720Z,5.40
2019-02-18T02:26:06.981Z,5.40
2019-02-18T02:28:37.976Z,5.40
2019-02-18T02:31:07.679Z,5.40
2019-02-18T02:33:37.074Z,5.40
2019-02-18T02:36:06.352Z,5.40
2019-02-18T02:38:36.237Z,5.40
2019-02-18T02:41:08.562Z,5.30
2019-02-18T02:43:37.836Z,5.30
2019-02-18T02:46:07.442Z,5.30
2019-02-18T02:48:39.608Z,5.30
2019-02-18T02:51:09.037Z,5.30
2019-02-18T02:53:38.666Z,5.20
2019-02-18T02:56:08.042Z,5.20
2019-02-18T02:58:37.626Z,5.20
2019-02-18T03:01:06.905Z,5.20
2019-02-18T03:03:36.352Z,5.20
2019-02-18T03:06:05.936Z,5.20
2019-02-18T03:08:35.500Z,5.10
2019-02-18T03:11:07.534Z,5.10
2019-02-18T03:13:36.757Z,5.10
2019-02-18T03:16:06.074Z,5.10
2019-02-18T03:18:35.414Z,5.10
2019-02-18T03:21:08.053Z,5.10
2019-02-18T03:23:37.633Z,5.10
2019-02-18T03:26:07.117Z,5.10
2019-02-18T03:29:08.595Z,5.00
2019-02-18T03:31:37.857Z,5.00
2019-02-18T03:34:14.496Z,5.10
2019-02-18T03:36:43.886Z,5.00
2019-02-18T03:39:13.157Z,5.00
2019-02-18T03:41:42.457Z,5.00
2019-02-18T03:44:12.013Z,5.00
2019-02-18T03:46:41.245Z,5.00
2019-02-18T03:49:10.829Z,5.00
2019-02-18T03:51:40.755Z,5.00
2019-02-18T03:54:10.041Z,5.00
2019-02-18T03:56:42.079Z,5.00
2019-02-18T03:59:11.351Z,5.00
2019-02-18T04:01:40.754Z,5.00
2019-02-18T04:04:10.118Z,5.00
2019-02-18T04:06:41.769Z,5.00
2019-02-18T04:09:11.682Z,5.00
2019-02-18T04:11:41.322Z,5.00
2019-02-18T04:14:10.584Z,4.90
2019-02-18T04:16:40.193Z,5.00
2019-02-18T04:19:09.454Z,5.00
2019-02-18T04:21:38.722Z,5.00
2019-02-18T04:24:08.008Z,5.00
2019-02-18T04:26:40.608Z,5.00
2019-02-18T04:29:10.286Z,5.00
2019-02-18T04:31:39.581Z,4.90
2019-02-18T04:34:08.938Z,4.90
2019-02-18T04:36:38.717Z,4.90
2019-02-18T04:39:08.319Z,4.90
2019-02-18T04:41:37.604Z,4.90
2019-02-18T04:44:06.914Z,4.90
2019-02-18T04:46:36.214Z,4.90
2019-02-18T04:49:09.021Z,4.90
2019-02-18T04:51:38.674Z,4.90
2019-02-18T04:54:08.422Z,4.90
2019-02-18T04:56:41.066Z,4.90
2019-02-18T04:59:10.330Z,4.90
2019-02-18T05:01:39.900Z,4.90
2019-02-18T05:04:09.768Z,4.90
2019-02-18T05:06:39.059Z,4.90
2019-02-18T05:09:08.523Z,4.80
2019-02-18T05:11:38.185Z,4.80
2019-02-18T05:14:07.725Z,4.80
2019-02-18T05:16:40.679Z,4.80
2019-02-18T05:19:09.879Z,4.80
2019-02-18T05:21:39.198Z,4.70
2019-02-18T05:24:08.507Z,4.70
2019-02-18T05:26:37.881Z,4.70
2019-02-18T05:29:07.228Z,4.70
2019-02-18T05:31:36.554Z,4.70
2019-02-18T05:34:06.320Z,4.70
2019-02-18T05:36:35.602Z,4.70
2019-02-18T05:39:17.364Z,4.70
2019-02-18T05:41:39.967Z,4.60
2019-02-18T05:44:09.360Z,4.70
2019-02-18T05:46:38.661Z,4.60
2019-02-18T05:49:08.538Z,4.60
2019-02-18T05:51:37.939Z,4.60
2019-02-18T05:54:07.385Z,4.60
2019-02-18T05:56:36.971Z,4.60
2019-02-18T05:59:08.203Z,4.60
2019-02-18T06:01:37.909Z,4.60
2019-02-18T06:04:07.267Z,4.50
2019-02-18T06:06:36.606Z,4.50
2019-02-18T06:09:06.673Z,4.50
2019-02-18T06:11:35.986Z,4.50
2019-02-18T06:14:05.284Z,4.50
2019-02-18T06:16:34.825Z,4.50
2019-02-18T06:19:04.709Z,4.50
2019-02-18T06:21:34.063Z,4.40
2019-02-18T06:24:04.023Z,4.40
2019-02-18T06:26:33.828Z,4.40
2019-02-18T06:29:06.133Z,4.40
2019-02-18T06:31:35.738Z,4.40
2019-02-18T06:34:05.321Z,4.40
2019-02-18T06:36:34.916Z,4.40
2019-02-18T06:39:06.598Z,4.40
2019-02-18T06:41:36.005Z,4.40
2019-02-18T06:44:05.348Z,4.40
2019-02-18T06:46:40.619Z,4.40
2019-02-18T06:49:18.184Z,4.40
2019-02-18T06:51:47.450Z,4.40
2019-02-18T06:54:16.728Z,4.40
2019-02-18T06:57:05.741Z,4.40
2019-02-18T06:59:42.302Z,4.40
2019-02-18T07:02:33.434Z,4.40
2019-02-18T07:05:21.057Z,4.40
2019-02-18T07:08:12.330Z,4.40
2019-02-18T07:10:59.139Z,4.40
2019-02-18T07:13:28.852Z,4.50
2019-02-18T07:15:58.439Z,4.50
2019-02-18T07:18:29.194Z,4.50
2019-02-18T07:20:58.449Z,4.50
2019-02-18T07:23:27.887Z,4.50
2019-02-18T07:25:57.333Z,4.50
2019-02-18T07:28:30.989Z,4.50
2019-02-18T07:31:00.318Z,4.60
2019-02-18T07:33:29.729Z,4.50
2019-02-18T07:35:59.141Z,4.60
2019-02-18T07:38:28.539Z,4.60
2019-02-18T07:40:57.869Z,4.60
2019-02-18T07:43:28.294Z,4.70
2019-02-18T07:45:58.236Z,4.70
2019-02-18T07:48:27.463Z,4.70
2019-02-18T07:50:57.110Z,4.70
2019-02-18T07:53:27.101Z,4.70
2019-02-18T07:55:56.509Z,4.80
2019-02-18T07:58:26.169Z,4.80
2019-02-18T08:00:55.518Z,4.80
2019-02-18T08:03:25.179Z,4.90
2019-02-18T08:05:54.495Z,4.90
2019-02-18T08:08:23.798Z,5.00
2019-02-18T08:10:53.057Z,5.00
2019-02-18T08:13:22.627Z,5.10
2019-02-18T08:15:51.940Z,5.10
2019-02-18T08:18:21.616Z,5.20
2019-02-18T08:20:51.110Z,5.20
2019-02-18T08:23:21.006Z,5.30
2019-02-18T08:25:50.573Z,5.40
2019-02-18T08:28:19.879Z,5.40
2019-02-18T08:30:49.728Z,5.50
2019-02-18T08:33:19.392Z,5.50
2019-02-18T08:35:48.728Z,5.60
2019-02-18T08:38:18.193Z,5.70
2019-02-18T08:40:47.716Z,5.70
2019-02-18T08:43:17.107Z,5.90
2019-02-18T08:45:46.382Z,5.90
2019-02-18T08:48:16.042Z,6.00
2019-02-18T08:50:48.232Z,6.10
2019-02-18T08:53:17.583Z,6.10
2019-02-18T08:55:47.447Z,6.20
2019-02-18T08:58:17.172Z,6.30
2019-02-18T09:00:46.565Z,6.40
2019-02-18T09:03:16.112Z,6.50
2019-02-18T09:05:45.525Z,6.60
2019-02-18T09:08:14.887Z,6.70
2019-02-18T09:10:44.208Z,6.80
2019-02-18T09:13:14.650Z,6.80
2019-02-18T09:15:44.659Z,7.00
2019-02-18T09:18:13.967Z,7.10
2019-02-18T09:20:43.225Z,7.10
2019-02-18T09:23:23.409Z,7.20
2019-02-18T09:25:58.902Z,7.30
2019-02-18T09:28:28.218Z,7.40
2019-02-18T09:30:57.902Z,7.40
2019-02-18T09:33:27.865Z,7.50
2019-02-18T09:35:57.530Z,7.60
2019-02-18T09:38:28.398Z,7.70
2019-02-18T09:40:57.843Z,7.80
2019-02-18T09:43:27.199Z,7.80
2019-02-18T09:45:56.764Z,7.90
2019-02-18T09:48:26.587Z,7.90
2019-02-18T09:50:56.001Z,7.90
2019-02-18T09:53:29.227Z,8.00
2019-02-18T09:55:58.927Z,8.10
2019-02-18T09:58:28.332Z,8.20
2019-02-18T10:00:57.734Z,8.20
2019-02-18T10:03:31.940Z,8.30
2019-02-18T10:05:58.241Z,8.40
2019-02-18T10:08:29.423Z,8.40
2019-02-18T10:10:58.841Z,8.50
2019-02-18T10:13:28.179Z,8.50
2019-02-18T10:16:03.657Z,8.60
2019-02-18T10:18:34.738Z,8.70
2019-02-18T10:21:04.287Z,8.80
2019-02-18T10:23:35.690Z,8.90
2019-02-18T10:26:07.084Z,9.00
2019-02-18T10:28:39.292Z,9.10
2019-02-18T10:31:10.957Z,9.20
2019-02-18T10:33:40.354Z,9.30
2019-02-18T10:36:09.722Z,9.50
2019-02-18T10:38:40.231Z,9.60
2019-02-18T10:41:12.224Z,9.70
2019-02-18T10:43:41.499Z,9.90
2019-02-18T10:46:10.807Z,10.00
2019-02-18T10:48:40.609Z,10.20
2019-02-18T10:51:12.646Z,10.30
2019-02-18T10:53:42.345Z,10.50
2019-02-18T10:56:11.761Z,10.60
2019-02-18T10:58:41.117Z,10.80
2019-02-18T11:01:13.188Z,11.00
2019-02-18T11:03:43.493Z,11.20
2019-02-18T11:06:12.876Z,11.30
2019-02-18T11:08:42.271Z,11.40
2019-02-18T11:11:16.959Z,11.50
2019-02-18T11:13:42.866Z,11.60
2019-02-18T11:16:12.478Z,11.80
2019-02-18T11:18:41.918Z,11.90
2019-02-18T11:21:11.949Z,12.00
2019-02-18T11:23:41.546Z,12.10
2019-02-18T11:26:13.309Z,12.20
2019-02-18T11:28:42.564Z,12.30
2019-02-18T11:31:12.513Z,12.40
2019-02-18T11:33:42.022Z,12.50
2019-02-18T11:36:11.327Z,12.60
2019-02-18T11:38:40.669Z,12.60
2019-02-18T11:41:12.963Z,12.50
2019-02-18T11:43:44.612Z,12.60
2019-02-18T11:46:13.961Z,12.70
2019-02-18T11:48:44.846Z,12.70
2019-02-18T11:51:14.295Z,12.70
2019-02-18T11:53:43.667Z,12.70
2019-02-18T11:56:13.000Z,12.80
2019-02-18T11:58:42.356Z,12.90
2019-02-18T12:01:12.048Z,13.00
2019-02-18T12:03:41.402Z,13.00
2019-02-18T12:06:10.686Z,13.10
2019-02-18T12:15:35.886Z,13.90
2019-02-18T12:18:05.286Z,13.10
2019-02-18T12:20:34.645Z,13.20
2019-02-18T12:23:04.920Z,13.30
2019-02-18T12:25:34.323Z,13.20
2019-02-18T12:28:03.701Z,13.30
2019-02-18T12:30:33.406Z,13.30
2019-02-18T12:33:02.776Z,13.30
2019-02-18T12:35:34.092Z,13.30
2019-02-18T12:38:03.499Z,13.40
2019-02-18T12:40:32.925Z,13.40
2019-02-18T12:43:02.298Z,13.40
2019-02-18T12:45:34.524Z,13.40
2019-02-18T12:48:03.960Z,13.30
2019-02-18T12:50:34.744Z,13.30
2019-02-18T12:53:05.784Z,13.30
2019-02-18T12:55:46.703Z,13.30
2019-02-18T12:58:16.268Z,13.30
2019-02-18T13:00:45.947Z,13.40
2019-02-18T13:03:15.363Z,13.40
2019-02-18T13:05:48.011Z,13.40
2019-02-18T13:08:17.874Z,13.40
2019-02-18T13:10:47.356Z,13.40
2019-02-18T13:13:17.003Z,13.40
2019-02-18T13:15:46.456Z,13.40
2019-02-18T13:18:16.264Z,13.40
2019-02-18T13:20:45.648Z,13.40
2019-02-18T13:23:15.061Z,13.40
2019-02-18T13:25:47.546Z,13.40
2019-02-18T13:28:15.592Z,13.50
2019-02-18T13:30:45.272Z,13.50
2019-02-18T13:33:14.604Z,13.50
2019-02-18T13:35:44.012Z,13.50
2019-02-18T13:38:13.677Z,13.50
2019-02-18T13:40:43.365Z,13.60
2019-02-18T13:43:12.682Z,13.60
2019-02-18T13:45:42.343Z,13.50
2019-02-18T13:48:11.682Z,13.50
2019-02-18T13:50:41.022Z,13.50
2019-02-18T13:53:12.469Z,13.40
2019-02-18T13:55:41.875Z,13.40
2019-02-18T13:58:11.588Z,13.50
2019-02-18T14:00:41.194Z,13.50
2019-02-18T14:03:12.614Z,13.40
2019-02-18T14:05:42.389Z,13.40
2019-02-18T14:08:12.054Z,13.30
2019-02-18T14:10:41.741Z,13.30
2019-02-18T14:13:12.413Z,13.20
2019-02-18T14:15:41.670Z,13.20
2019-02-18T14:18:11.356Z,13.10
2019-02-18T14:20:41.087Z,13.10
2019-02-18T14:23:11.939Z,13.10
2019-02-18T14:25:42.439Z,13.00
2019-02-18T14:28:11.820Z,12.90
2019-02-18T14:30:41.236Z,12.90
2019-02-18T14:33:13.055Z,12.90
2019-02-18T14:35:43.534Z,12.90
2019-02-18T14:38:12.941Z,12.90
2019-02-18T14:40:42.399Z,12.80
2019-02-18T14:43:14.534Z,12.80
2019-02-18T14:45:43.989Z,12.70
2019-02-18T14:48:13.516Z,12.70
2019-02-18T14:50:43.849Z,12.70
2019-02-18T14:53:13.391Z,12.70
2019-02-18T14:55:44.239Z,12.60
2019-02-18T14:58:15.883Z,12.60
2019-02-18T15:00:45.660Z,12.60
2019-02-18T15:03:22.657Z,12.50
2019-02-18T15:05:52.297Z,12.50
2019-02-18T15:08:42.727Z,12.50
2019-02-18T15:11:13.571Z,12.40
2019-02-18T15:13:43.897Z,12.40
2019-02-18T15:16:13.263Z,12.40
2019-02-18T15:18:52.797Z,12.40
2019-02-18T15:21:19.073Z,12.40
2019-02-18T15:23:48.884Z,12.30
2019-02-18T15:26:18.854Z,12.30
2019-02-18T15:28:48.376Z,12.30
2019-02-18T15:31:20.324Z,12.20
2019-02-18T15:33:50.046Z,12.10
2019-02-18T15:36:19.693Z,12.10
2019-02-18T15:38:49.210Z,12.10
2019-02-18T15:41:18.637Z,12.00
2019-02-18T15:43:48.511Z,12.00
2019-02-18T15:46:17.918Z,11.90
2019-02-18T15:48:48.601Z,11.90
2019-02-18T15:51:18.260Z,11.90
2019-02-18T15:53:47.724Z,11.80
2019-02-18T15:56:17.580Z,11.70
2019-02-18T15:58:46.941Z,11.70
2019-02-18T16:01:16.351Z,11.70
2019-02-18T16:03:46.035Z,11.70
2019-02-18T16:06:15.798Z,11.60
2019-02-18T16:08:46.026Z,11.60
2019-02-18T16:11:15.844Z,11.50
2019-02-18T16:13:45.272Z,11.50
2019-02-18T16:16:14.649Z,11.40
2019-02-18T16:18:44.078Z,11.40
2019-02-18T16:21:14.372Z,11.30
2019-02-18T16:23:43.872Z,11.20
2019-02-18T16:26:13.594Z,11.20
2019-02-18T16:28:44.970Z,11.10
2019-02-18T16:31:17.561Z,11.00
2019-02-18T16:33:47.027Z,11.00
2019-02-18T16:36:16.418Z,10.50
2019-02-18T16:38:45.856Z,10.90
2019-02-18T16:41:15.181Z,10.90
2019-02-18T16:43:46.356Z,10.80
2019-02-18T16:46:15.730Z,10.80
2019-02-18T16:48:45.730Z,10.70
2019-02-18T16:51:15.174Z,10.60
2019-02-18T16:53:44.464Z,10.60
2019-02-18T16:56:13.821Z,10.50
2019-02-18T16:58:45.499Z,10.50
2019-02-18T17:01:14.921Z,10.40
2019-02-18T17:03:44.280Z,10.40
2019-02-18T17:06:13.997Z,10.30
2019-02-18T17:08:43.336Z,10.30
2019-02-18T17:11:12.905Z,10.20
2019-02-18T17:13:42.196Z,10.20
2019-02-18T17:16:11.627Z,10.10
2019-02-18T17:18:41.378Z,10.10
2019-02-18T17:21:12.283Z,10.00
2019-02-18T17:23:41.628Z,10.00
2019-02-18T17:26:13.860Z,10.00
2019-02-18T17:28:45.819Z,9.90
2019-02-18T17:31:15.359Z,9.90
2019-02-18T17:33:44.667Z,9.90
2019-02-18T17:36:14.278Z,9.80
2019-02-18T17:38:43.603Z,9.80
2019-02-18T17:41:15.877Z,9.70
2019-02-18T17:43:45.439Z,9.70
2019-02-18T17:46:15.115Z,9.60
2019-02-18T17:48:44.768Z,9.60
2019-02-18T17:51:14.101Z,9.60
2019-02-18T17:53:44.601Z,9.60
2019-02-18T17:56:13.988Z,9.50
2019-02-18T17:58:43.805Z,9.50
2019-02-18T18:01:15.196Z,9.50
2019-02-18T18:03:44.937Z,9.50
2019-02-18T18:06:14.712Z,9.50
2019-02-18T18:08:44.040Z,9.40
2019-02-18T18:11:16.482Z,9.40
2019-02-18T18:13:46.378Z,9.30
2019-02-18T18:16:15.700Z,9.30
2019-02-18T18:18:44.998Z,9.30
2019-02-18T18:21:14.393Z,9.20
2019-02-18T18:23:43.704Z,9.20
2019-02-18T18:26:13.065Z,9.20
2019-02-18T18:28:42.697Z,9.10
2019-02-18T18:31:14.956Z,9.10
2019-02-18T18:33:46.551Z,9.10
2019-02-18T18:36:16.147Z,9.10
2019-02-18T18:38:45.593Z,9.00
2019-02-18T18:41:14.995Z,9.00
2019-02-18T18:43:44.604Z,8.90
2019-02-18T18:46:16.988Z,8.90
2019-02-18T18:48:46.921Z,8.90
2019-02-18T18:51:20.309Z,8.90
2019-02-18T18:56:27.592Z,8.90
2019-02-18T18:58:58.729Z,8.90
2019-02-18T19:01:30.071Z,8.90
2019-02-18T19:04:02.593Z,8.80
2019-02-18T19:06:32.239Z,8.80
2019-02-18T19:09:03.706Z,8.80
2019-02-18T19:11:32.778Z,8.80
2019-02-18T19:14:03.274Z,8.90
2019-02-18T19:16:32.793Z,8.90
2019-02-18T19:19:02.967Z,8.80
2019-02-18T19:21:32.461Z,8.80
2019-02-18T19:24:03.607Z,8.80
2019-02-18T19:26:33.056Z,8.80
2019-02-18T19:29:02.406Z,8.80
2019-02-18T19:31:31.732Z,8.70
2019-02-18T19:34:01.079Z,8.70
2019-02-18T19:36:32.211Z,8.70
2019-02-18T19:39:03.459Z,8.60
2019-02-18T19:41:32.651Z,8.60
2019-02-18T19:44:01.993Z,8.60
2019-02-18T19:46:31.748Z,8.50
2019-02-18T19:49:02.356Z,8.50
2019-02-18T19:51:31.799Z,8.50
2019-02-18T19:54:01.207Z,8.40
2019-02-18T19:56:30.592Z,8.40
2019-02-18T19:58:59.994Z,8.40
2019-02-18T20:01:39.291Z,8.30
2019-02-18T20:04:16.450Z,8.30
2019-02-18T20:06:45.822Z,8.30
2019-02-18T20:09:16.059Z,8.20
2019-02-18T20:11:45.799Z,8.20
2019-02-18T20:14:15.257Z,8.20
2019-02-18T20:16:47.970Z,8.20
2019-02-18T20:19:17.353Z,8.20
2019-02-18T20:21:46.661Z,8.20
2019-02-18T20:24:16.047Z,8.20
2019-02-18T20:26:45.332Z,8.20
2019-02-18T20:29:15.335Z,8.20
2019-02-18T20:31:45.947Z,8.20
2019-02-18T20:34:15.425Z,8.20
2019-02-18T20:36:44.763Z,8.20
2019-02-18T20:39:18.854Z,8.10
2019-02-18T20:41:51.557Z,8.10
2019-02-18T20:44:21.159Z,8.20
2019-02-18T20:46:51.967Z,8.20
2019-02-18T20:49:22.831Z,8.10
2019-02-18T20:51:58.278Z,8.20
2019-02-18T20:54:35.410Z,8.20
2019-02-18T20:57:07.907Z,8.20
2019-02-18T20:59:37.614Z,8.20
2019-02-18T21:02:12.763Z,8.20
2019-02-18T21:04:42.276Z,8.20
2019-02-18T21:07:14.785Z,8.20
2019-02-18T21:09:44.110Z,8.20
2019-02-18T21:12:19.959Z,8.30
2019-02-18T21:14:48.963Z,8.30
2019-02-18T21:17:18.460Z,8.30
2019-02-18T21:19:47.845Z,8.30
2019-02-18T21:22:17.246Z,8.30
2019-02-18T21:24:46.738Z,8.30
2019-02-18T21:27:16.172Z,8.40
2019-02-18T21:29:48.148Z,8.30
2019-02-18T21:32:17.657Z,8.40
2019-02-18T21:34:47.103Z,8.40
2019-02-18T21:37:19.023Z,8.40
2019-02-18T21:39:48.367Z,8.40
2019-02-18T21:42:19.782Z,8.40
2019-02-18T21:44:50.954Z,8.30
2019-02-18T21:47:20.621Z,8.40
2019-02-18T21:49:50.690Z,8.30
2019-02-18T21:52:20.134Z,8.30
2019-02-18T21:54:49.574Z,8.30
2019-02-18T21:57:19.014Z,8.30
2019-02-18T21:59:48.553Z,8.20
2019-02-18T22:02:18.003Z,8.20
2019-02-18T22:04:47.360Z,8.20
2019-02-18T22:07:16.843Z,8.10
2019-02-18T22:09:46.272Z,8.10
2019-02-18T22:12:15.628Z,8.10
2019-02-18T22:14:45.049Z,8.00
2019-02-18T22:17:17.600Z,8.10
2019-02-18T22:19:47.012Z,8.00
2019-02-18T22:22:16.414Z,8.00
2019-02-18T22:24:45.759Z,8.00
2019-02-18T22:27:16.315Z,8.00
2019-02-18T22:29:45.616Z,8.00
2019-02-18T22:32:15.017Z,8.00
2019-02-18T22:34:44.494Z,8.00
2019-02-18T22:37:15.009Z,7.90
2019-02-18T22:39:45.898Z,7.90
2019-02-18T22:42:15.514Z,7.90
2019-02-18T22:44:44.848Z,7.90
2019-02-18T22:47:16.590Z,7.90
2019-02-18T22:49:45.909Z,7.90
2019-02-18T22:52:15.296Z,7.90
2019-02-18T22:54:47.106Z,7.80
2019-02-18T22:57:16.513Z,7.90
2019-02-18T22:59:45.849Z,7.80
2019-02-18T23:02:15.277Z,7.80
2019-02-18T23:04:44.718Z,7.80
2019-02-18T23:07:15.725Z,7.80
2019-02-18T23:09:45.126Z,7.70
2019-02-18T23:12:14.602Z,7.70
2019-02-18T23:14:50.350Z,7.70
2019-02-18T23:17:16.111Z,7.70
2019-02-18T23:19:45.506Z,7.70
2019-02-18T23:22:14.898Z,7.70
2019-02-18T23:24:44.359Z,7.70
2019-02-18T23:27:17.740Z,7.70
2019-02-18T23:29:47.083Z,7.70
2019-02-18T23:32:17.584Z,7.70
2019-02-18T23:34:47.297Z,7.70
2019-02-18T23:37:16.698Z,7.70
2019-02-18T23:39:46.408Z,7.70
2019-02-18T23:42:15.766Z,7.70
2019-02-18T23:44:47.421Z,7.60
2019-02-18T23:47:16.836Z,7.60
2019-02-18T23:49:46.218Z,7.60
2019-02-18T23:52:15.593Z,7.60
2019-02-18T23:54:44.934Z,7.60
2019-02-18T23:57:17.248Z,7.50
2019-02-18T23:59:46.954Z,7.50
